sensor_id;sensor_type;location;lat;lon;timestamp;P1;durP1;ratioP1;P2;durP2;ratioP2
22332;SDS011;11334;36.986;-121.936;2022-07-23T00:00:35;13.07;;;4.97;;
22332;SDS011;11334;36.986;-121.936;2022-07-23T00:03:01;12.52;;;4.75;;
22332;SDS011;11334;36.986;-121.936;2022-07-23T00:05:27;13.88;;;5.00;;
22332;SDS011;11334;36.986;-121.936;2022-07-23T00:07:54;16.13;;;5.13;;
22332;SDS011;11334;36.986;-121.936;2022-07-23T00:10:20;14.10;;;5.78;;
22332;SDS011;11334;36.986;-121.936;2022-07-23T00:12:46;14.45;;;4.70;;
22332;SDS011;11334;36.986;-121.936;2022-07-23T00:15:12;16.05;;;5.15;;
22332;SDS011;11334;36.986;-121.936;2022-07-23T00:17:38;13.82;;;4.75;;
22332;SDS011;11334;36.986;-121.936;2022-07-23T00:20:05;16.48;;;5.82;;
22332;SDS011;11334;36.986;-121.936;2022-07-23T00:22:32;18.52;;;4.65;;
22332;SDS011;11334;36.986;-121.936;2022-07-23T00:24:58;15.63;;;5.15;;
22332;SDS011;11334;36.986;-121.936;2022-07-23T00:27:24;15.85;;;5.07;;
22332;SDS011;11334;36.986;-121.936;2022-07-23T00:29:50;12.18;;;4.68;;
22332;SDS011;11334;36.986;-121.936;2022-07-23T00:32:16;13.43;;;4.97;;
22332;SDS011;11334;36.986;-121.936;2022-07-23T00:34:43;10.68;;;4.07;;
22332;SDS011;11334;36.986;-121.936;2022-07-23T00:37:09;13.45;;;4.57;;
22332;SDS011;11334;36.986;-121.936;2022-07-23T00:39:35;18.92;;;5.43;;
22332;SDS011;11334;36.986;-121.936;2022-07-23T00:42:01;14.18;;;4.68;;
22332;SDS011;11334;36.986;-121.936;2022-07-23T00:44:28;18.40;;;5.72;;
22332;SDS011;11334;36.986;-121.936;2022-07-23T00:46:55;15.25;;;5.53;;
22332;SDS011;11334;36.986;-121.936;2022-07-23T00:49:27;15.30;;;5.22;;
22332;SDS011;11334;36.986;-121.936;2022-07-23T00:51:55;16.45;;;5.30;;
22332;SDS011;11334;36.986;-121.936;2022-07-23T00:54:25;19.73;;;5.68;;
22332;SDS011;11334;36.986;-121.936;2022-07-23T00:56:53;16.58;;;5.65;;
22332;SDS011;11334;36.986;-121.936;2022-07-23T00:59:19;13.95;;;5.50;;
22332;SDS011;11334;36.986;-121.936;2022-07-23T01:01:45;17.98;;;5.03;;
22332;SDS011;11334;36.986;-121.936;2022-07-23T01:04:14;16.85;;;4.88;;
22332;SDS011;11334;36.986;-121.936;2022-07-23T01:06:41;17.20;;;5.18;;
22332;SDS011;11334;36.986;-121.936;2022-07-23T01:09:10;13.65;;;5.03;;
22332;SDS011;11334;36.986;-121.936;2022-07-23T01:11:36;16.70;;;5.60;;
22332;SDS011;11334;36.986;-121.936;2022-07-23T01:14:13;15.30;;;4.97;;
22332;SDS011;11334;36.986;-121.936;2022-07-23T01:16:44;15.20;;;5.07;;
22332;SDS011;11334;36.986;-121.936;2022-07-23T01:19:12;18.60;;;5.30;;
22332;SDS011;11334;36.986;-121.936;2022-07-23T01:21:40;17.38;;;5.43;;
22332;SDS011;11334;36.986;-121.936;2022-07-23T01:24:09;20.35;;;5.65;;
22332;SDS011;11334;36.986;-121.936;2022-07-23T01:26:37;17.88;;;5.38;;
22332;SDS011;11334;36.986;-121.936;2022-07-23T01:29:04;16.55;;;5.72;;
22332;SDS011;11334;36.986;-121.936;2022-07-23T01:31:30;15.77;;;5.43;;
22332;SDS011;11334;36.986;-121.936;2022-07-23T01:33:56;15.43;;;5.05;;
22332;SDS011;11334;36.986;-121.936;2022-07-23T01:36:23;21.23;;;5.90;;
22332;SDS011;11334;36.986;-121.936;2022-07-23T01:38:49;14.70;;;5.40;;
22332;SDS011;11334;36.986;-121.936;2022-07-23T01:41:15;14.02;;;4.93;;
22332;SDS011;11334;36.986;-121.936;2022-07-23T01:43:42;16.90;;;5.15;;
22332;SDS011;11334;36.986;-121.936;2022-07-23T01:46:08;17.27;;;5.00;;
22332;SDS011;11334;36.986;-121.936;2022-07-23T01:48:34;19.65;;;4.93;;
22332;SDS011;11334;36.986;-121.936;2022-07-23T01:51:01;16.23;;;5.28;;
22332;SDS011;11334;36.986;-121.936;2022-07-23T01:53:27;16.65;;;5.25;;
22332;SDS011;11334;36.986;-121.936;2022-07-23T01:55:56;19.75;;;6.13;;
22332;SDS011;11334;36.986;-121.936;2022-07-23T01:58:24;18.30;;;5.03;;
22332;SDS011;11334;36.986;-121.936;2022-07-23T02:00:51;12.45;;;5.15;;
22332;SDS011;11334;36.986;-121.936;2022-07-23T02:03:17;19.20;;;5.18;;
22332;SDS011;11334;36.986;-121.936;2022-07-23T02:05:43;24.70;;;7.07;;
22332;SDS011;11334;36.986;-121.936;2022-07-23T02:08:10;18.75;;;6.30;;
22332;SDS011;11334;36.986;-121.936;2022-07-23T02:10:36;17.52;;;5.80;;
22332;SDS011;11334;36.986;-121.936;2022-07-23T02:13:02;18.10;;;5.85;;
22332;SDS011;11334;36.986;-121.936;2022-07-23T02:15:29;20.00;;;5.22;;
22332;SDS011;11334;36.986;-121.936;2022-07-23T02:17:55;19.35;;;5.25;;
22332;SDS011;11334;36.986;-121.936;2022-07-23T02:20:22;20.10;;;6.28;;
22332;SDS011;11334;36.986;-121.936;2022-07-23T02:22:48;16.75;;;5.78;;
22332;SDS011;11334;36.986;-121.936;2022-07-23T02:25:14;17.10;;;5.72;;
22332;SDS011;11334;36.986;-121.936;2022-07-23T02:27:41;17.10;;;5.00;;
22332;SDS011;11334;36.986;-121.936;2022-07-23T02:30:07;18.45;;;5.75;;
22332;SDS011;11334;36.986;-121.936;2022-07-23T02:32:34;25.63;;;5.97;;
22332;SDS011;11334;36.986;-121.936;2022-07-23T02:35:02;16.60;;;6.20;;
22332;SDS011;11334;36.986;-121.936;2022-07-23T02:37:29;15.85;;;5.43;;
22332;SDS011;11334;36.986;-121.936;2022-07-23T02:39:56;26.48;;;5.75;;
22332;SDS011;11334;36.986;-121.936;2022-07-23T02:42:22;20.27;;;5.63;;
22332;SDS011;11334;36.986;-121.936;2022-07-23T02:44:49;21.08;;;6.43;;
22332;SDS011;11334;36.986;-121.936;2022-07-23T02:47:16;21.63;;;6.03;;
22332;SDS011;11334;36.986;-121.936;2022-07-23T02:49:42;24.67;;;5.90;;
22332;SDS011;11334;36.986;-121.936;2022-07-23T02:52:09;20.73;;;6.32;;
22332;SDS011;11334;36.986;-121.936;2022-07-23T02:54:38;18.10;;;5.85;;
22332;SDS011;11334;36.986;-121.936;2022-07-23T02:57:04;19.00;;;5.70;;
22332;SDS011;11334;36.986;-121.936;2022-07-23T02:59:30;19.88;;;6.20;;
22332;SDS011;11334;36.986;-121.936;2022-07-23T03:01:57;23.05;;;5.88;;
22332;SDS011;11334;36.986;-121.936;2022-07-23T03:04:23;20.50;;;6.07;;
22332;SDS011;11334;36.986;-121.936;2022-07-23T03:06:49;21.58;;;6.45;;
22332;SDS011;11334;36.986;-121.936;2022-07-23T03:09:15;21.40;;;5.88;;
22332;SDS011;11334;36.986;-121.936;2022-07-23T03:11:41;19.02;;;5.30;;
22332;SDS011;11334;36.986;-121.936;2022-07-23T03:14:08;23.55;;;6.22;;
22332;SDS011;11334;36.986;-121.936;2022-07-23T03:16:34;18.67;;;5.22;;
22332;SDS011;11334;36.986;-121.936;2022-07-23T03:19:00;25.17;;;5.63;;
22332;SDS011;11334;36.986;-121.936;2022-07-23T03:21:26;19.15;;;5.50;;
22332;SDS011;11334;36.986;-121.936;2022-07-23T03:23:52;19.42;;;5.25;;
22332;SDS011;11334;36.986;-121.936;2022-07-23T03:26:19;18.98;;;5.97;;
22332;SDS011;11334;36.986;-121.936;2022-07-23T03:28:45;22.65;;;5.50;;
22332;SDS011;11334;36.986;-121.936;2022-07-23T03:31:11;21.30;;;6.03;;
22332;SDS011;11334;36.986;-121.936;2022-07-23T03:33:37;22.63;;;5.90;;
22332;SDS011;11334;36.986;-121.936;2022-07-23T03:36:03;28.15;;;5.78;;
22332;SDS011;11334;36.986;-121.936;2022-07-23T03:38:30;17.77;;;5.85;;
22332;SDS011;11334;36.986;-121.936;2022-07-23T03:40:56;25.63;;;6.10;;
22332;SDS011;11334;36.986;-121.936;2022-07-23T03:43:22;16.52;;;5.28;;
22332;SDS011;11334;36.986;-121.936;2022-07-23T03:45:51;18.75;;;5.45;;
22332;SDS011;11334;36.986;-121.936;2022-07-23T03:48:17;18.35;;;5.68;;
22332;SDS011;11334;36.986;-121.936;2022-07-23T03:50:43;18.30;;;5.85;;
22332;SDS011;11334;36.986;-121.936;2022-07-23T03:53:10;27.58;;;6.35;;
22332;SDS011;11334;36.986;-121.936;2022-07-23T03:55:36;19.80;;;5.72;;
22332;SDS011;11334;36.986;-121.936;2022-07-23T03:58:02;20.08;;;5.25;;
22332;SDS011;11334;36.986;-121.936;2022-07-23T04:00:28;23.98;;;5.63;;
22332;SDS011;11334;36.986;-121.936;2022-07-23T04:02:54;20.75;;;5.82;;
22332;SDS011;11334;36.986;-121.936;2022-07-23T04:05:21;19.45;;;5.72;;
22332;SDS011;11334;36.986;-121.936;2022-07-23T04:07:47;21.45;;;5.50;;
22332;SDS011;11334;36.986;-121.936;2022-07-23T04:10:13;23.20;;;5.75;;
22332;SDS011;11334;36.986;-121.936;2022-07-23T04:12:39;25.63;;;6.15;;
22332;SDS011;11334;36.986;-121.936;2022-07-23T04:15:06;26.95;;;5.68;;
22332;SDS011;11334;36.986;-121.936;2022-07-23T04:17:34;17.35;;;5.60;;
22332;SDS011;11334;36.986;-121.936;2022-07-23T04:20:00;26.38;;;6.55;;
22332;SDS011;11334;36.986;-121.936;2022-07-23T04:22:27;31.13;;;7.07;;
22332;SDS011;11334;36.986;-121.936;2022-07-23T04:24:54;21.15;;;6.18;;
22332;SDS011;11334;36.986;-121.936;2022-07-23T04:27:20;29.25;;;7.05;;
22332;SDS011;11334;36.986;-121.936;2022-07-23T04:29:46;24.15;;;6.70;;
22332;SDS011;11334;36.986;-121.936;2022-07-23T04:32:12;22.13;;;7.30;;
22332;SDS011;11334;36.986;-121.936;2022-07-23T04:34:38;26.92;;;6.88;;
22332;SDS011;11334;36.986;-121.936;2022-07-23T04:37:05;32.05;;;7.30;;
22332;SDS011;11334;36.986;-121.936;2022-07-23T04:39:31;31.50;;;7.35;;
22332;SDS011;11334;36.986;-121.936;2022-07-23T04:41:57;26.45;;;7.05;;
22332;SDS011;11334;36.986;-121.936;2022-07-23T04:44:23;25.92;;;7.40;;
22332;SDS011;11334;36.986;-121.936;2022-07-23T04:46:49;23.10;;;7.38;;
22332;SDS011;11334;36.986;-121.936;2022-07-23T04:49:15;20.92;;;7.20;;
22332;SDS011;11334;36.986;-121.936;2022-07-23T04:51:42;22.98;;;7.68;;
22332;SDS011;11334;36.986;-121.936;2022-07-23T04:54:08;21.13;;;6.80;;
22332;SDS011;11334;36.986;-121.936;2022-07-23T04:56:34;25.75;;;8.18;;
22332;SDS011;11334;36.986;-121.936;2022-07-23T04:59:00;22.70;;;6.70;;
22332;SDS011;11334;36.986;-121.936;2022-07-23T05:01:26;20.23;;;6.15;;
22332;SDS011;11334;36.986;-121.936;2022-07-23T05:03:52;16.42;;;5.45;;
22332;SDS011;11334;36.986;-121.936;2022-07-23T05:06:19;25.63;;;6.25;;
22332;SDS011;11334;36.986;-121.936;2022-07-23T05:08:45;23.92;;;6.32;;
22332;SDS011;11334;36.986;-121.936;2022-07-23T05:11:11;17.05;;;5.50;;
22332;SDS011;11334;36.986;-121.936;2022-07-23T05:13:37;26.27;;;6.80;;
22332;SDS011;11334;36.986;-121.936;2022-07-23T05:16:04;26.13;;;6.75;;
22332;SDS011;11334;36.986;-121.936;2022-07-23T05:18:30;22.30;;;5.93;;
22332;SDS011;11334;36.986;-121.936;2022-07-23T05:20:56;23.98;;;5.85;;
22332;SDS011;11334;36.986;-121.936;2022-07-23T05:23:22;22.83;;;5.85;;
22332;SDS011;11334;36.986;-121.936;2022-07-23T05:25:49;18.50;;;5.97;;
22332;SDS011;11334;36.986;-121.936;2022-07-23T05:28:15;23.60;;;6.00;;
22332;SDS011;11334;36.986;-121.936;2022-07-23T05:30:41;21.63;;;6.32;;
22332;SDS011;11334;36.986;-121.936;2022-07-23T05:33:07;20.58;;;5.70;;
22332;SDS011;11334;36.986;-121.936;2022-07-23T05:35:34;20.38;;;5.85;;
22332;SDS011;11334;36.986;-121.936;2022-07-23T05:38:00;23.45;;;5.75;;
22332;SDS011;11334;36.986;-121.936;2022-07-23T05:40:26;22.60;;;5.55;;
22332;SDS011;11334;36.986;-121.936;2022-07-23T05:42:52;17.58;;;5.60;;
22332;SDS011;11334;36.986;-121.936;2022-07-23T05:45:19;22.67;;;5.53;;
22332;SDS011;11334;36.986;-121.936;2022-07-23T05:47:46;18.75;;;5.90;;
22332;SDS011;11334;36.986;-121.936;2022-07-23T05:50:13;22.67;;;6.57;;
22332;SDS011;11334;36.986;-121.936;2022-07-23T05:52:40;18.92;;;6.07;;
22332;SDS011;11334;36.986;-121.936;2022-07-23T05:55:08;24.17;;;6.10;;
22332;SDS011;11334;36.986;-121.936;2022-07-23T05:57:35;18.50;;;5.90;;
22332;SDS011;11334;36.986;-121.936;2022-07-23T06:00:03;25.40;;;6.05;;
22332;SDS011;11334;36.986;-121.936;2022-07-23T06:02:31;19.27;;;5.22;;
22332;SDS011;11334;36.986;-121.936;2022-07-23T06:04:57;25.98;;;6.13;;
22332;SDS011;11334;36.986;-121.936;2022-07-23T06:07:24;21.45;;;5.93;;
22332;SDS011;11334;36.986;-121.936;2022-07-23T06:09:50;22.65;;;6.43;;
22332;SDS011;11334;36.986;-121.936;2022-07-23T06:12:16;22.58;;;5.60;;
22332;SDS011;11334;36.986;-121.936;2022-07-23T06:14:43;21.27;;;6.35;;
22332;SDS011;11334;36.986;-121.936;2022-07-23T06:17:10;20.70;;;5.78;;
22332;SDS011;11334;36.986;-121.936;2022-07-23T06:19:36;23.75;;;5.93;;
22332;SDS011;11334;36.986;-121.936;2022-07-23T06:22:02;21.60;;;6.25;;
22332;SDS011;11334;36.986;-121.936;2022-07-23T06:24:28;25.67;;;6.43;;
22332;SDS011;11334;36.986;-121.936;2022-07-23T06:26:55;12.15;;;5.25;;
22332;SDS011;11334;36.986;-121.936;2022-07-23T06:29:21;26.27;;;5.55;;
22332;SDS011;11334;36.986;-121.936;2022-07-23T06:31:47;22.38;;;5.10;;
22332;SDS011;11334;36.986;-121.936;2022-07-23T06:34:13;22.13;;;6.07;;
22332;SDS011;11334;36.986;-121.936;2022-07-23T06:36:39;15.75;;;5.10;;
22332;SDS011;11334;36.986;-121.936;2022-07-23T06:39:06;14.73;;;4.40;;
22332;SDS011;11334;36.986;-121.936;2022-07-23T06:41:32;21.20;;;5.57;;
22332;SDS011;11334;36.986;-121.936;2022-07-23T06:43:58;19.42;;;5.38;;
22332;SDS011;11334;36.986;-121.936;2022-07-23T06:46:24;19.27;;;4.78;;
22332;SDS011;11334;36.986;-121.936;2022-07-23T06:48:51;22.63;;;5.90;;
22332;SDS011;11334;36.986;-121.936;2022-07-23T06:51:17;14.23;;;5.03;;
22332;SDS011;11334;36.986;-121.936;2022-07-23T06:53:43;15.93;;;5.38;;
22332;SDS011;11334;36.986;-121.936;2022-07-23T06:56:09;19.00;;;5.05;;
22332;SDS011;11334;36.986;-121.936;2022-07-23T06:58:36;17.25;;;4.53;;
22332;SDS011;11334;36.986;-121.936;2022-07-23T07:01:02;16.23;;;5.07;;
22332;SDS011;11334;36.986;-121.936;2022-07-23T07:03:28;23.23;;;5.22;;
22332;SDS011;11334;36.986;-121.936;2022-07-23T07:05:55;24.83;;;5.55;;
22332;SDS011;11334;36.986;-121.936;2022-07-23T07:08:23;13.45;;;5.07;;
22332;SDS011;11334;36.986;-121.936;2022-07-23T07:10:49;15.85;;;4.72;;
22332;SDS011;11334;36.986;-121.936;2022-07-23T07:13:15;22.63;;;5.15;;
22332;SDS011;11334;36.986;-121.936;2022-07-23T07:15:42;18.70;;;5.00;;
22332;SDS011;11334;36.986;-121.936;2022-07-23T07:18:08;16.65;;;5.63;;
22332;SDS011;11334;36.986;-121.936;2022-07-23T07:20:34;19.50;;;6.03;;
22332;SDS011;11334;36.986;-121.936;2022-07-23T07:23:01;14.15;;;5.70;;
22332;SDS011;11334;36.986;-121.936;2022-07-23T07:25:27;21.83;;;6.10;;
22332;SDS011;11334;36.986;-121.936;2022-07-23T07:27:53;18.27;;;5.18;;
22332;SDS011;11334;36.986;-121.936;2022-07-23T07:30:20;15.98;;;5.10;;
22332;SDS011;11334;36.986;-121.936;2022-07-23T07:32:46;17.77;;;5.00;;
22332;SDS011;11334;36.986;-121.936;2022-07-23T07:35:12;15.80;;;5.43;;
22332;SDS011;11334;36.986;-121.936;2022-07-23T07:37:38;16.38;;;5.38;;
22332;SDS011;11334;36.986;-121.936;2022-07-23T07:40:05;23.00;;;8.85;;
22332;SDS011;11334;36.986;-121.936;2022-07-23T07:42:31;21.33;;;6.93;;
22332;SDS011;11334;36.986;-121.936;2022-07-23T07:44:58;14.63;;;5.18;;
22332;SDS011;11334;36.986;-121.936;2022-07-23T07:47:24;18.20;;;4.82;;
22332;SDS011;11334;36.986;-121.936;2022-07-23T07:49:50;17.38;;;4.85;;
22332;SDS011;11334;36.986;-121.936;2022-07-23T07:52:16;14.80;;;4.70;;
22332;SDS011;11334;36.986;-121.936;2022-07-23T07:54:42;18.25;;;5.10;;
22332;SDS011;11334;36.986;-121.936;2022-07-23T07:57:09;23.20;;;6.45;;
22332;SDS011;11334;36.986;-121.936;2022-07-23T07:59:35;15.15;;;5.53;;
22332;SDS011;11334;36.986;-121.936;2022-07-23T08:02:01;18.20;;;5.30;;
22332;SDS011;11334;36.986;-121.936;2022-07-23T08:04:28;16.40;;;5.10;;
22332;SDS011;11334;36.986;-121.936;2022-07-23T08:06:54;14.00;;;4.72;;
22332;SDS011;11334;36.986;-121.936;2022-07-23T08:09:20;19.25;;;5.60;;
22332;SDS011;11334;36.986;-121.936;2022-07-23T08:11:46;24.02;;;5.75;;
22332;SDS011;11334;36.986;-121.936;2022-07-23T08:14:12;23.33;;;5.65;;
22332;SDS011;11334;36.986;-121.936;2022-07-23T08:16:39;15.35;;;5.72;;
22332;SDS011;11334;36.986;-121.936;2022-07-23T08:19:05;20.60;;;6.25;;
22332;SDS011;11334;36.986;-121.936;2022-07-23T08:21:31;16.38;;;5.30;;
22332;SDS011;11334;36.986;-121.936;2022-07-23T08:23:58;12.55;;;4.15;;
22332;SDS011;11334;36.986;-121.936;2022-07-23T08:26:25;13.02;;;4.93;;
22332;SDS011;11334;36.986;-121.936;2022-07-23T08:28:51;14.70;;;6.03;;
22332;SDS011;11334;36.986;-121.936;2022-07-23T08:31:17;11.75;;;4.53;;
22332;SDS011;11334;36.986;-121.936;2022-07-23T08:33:44;16.83;;;5.03;;
22332;SDS011;11334;36.986;-121.936;2022-07-23T08:36:10;15.98;;;4.82;;
22332;SDS011;11334;36.986;-121.936;2022-07-23T08:38:36;12.20;;;4.63;;
22332;SDS011;11334;36.986;-121.936;2022-07-23T08:41:02;17.85;;;5.63;;
22332;SDS011;11334;36.986;-121.936;2022-07-23T08:43:30;17.15;;;4.43;;
22332;SDS011;11334;36.986;-121.936;2022-07-23T08:45:59;15.43;;;4.60;;
22332;SDS011;11334;36.986;-121.936;2022-07-23T08:48:34;17.63;;;5.10;;
22332;SDS011;11334;36.986;-121.936;2022-07-23T08:51:04;16.88;;;5.03;;
22332;SDS011;11334;36.986;-121.936;2022-07-23T08:53:32;13.55;;;4.82;;
22332;SDS011;11334;36.986;-121.936;2022-07-23T08:56:04;16.38;;;5.07;;
22332;SDS011;11334;36.986;-121.936;2022-07-23T08:58:31;17.45;;;5.10;;
22332;SDS011;11334;36.986;-121.936;2022-07-23T09:00:58;15.52;;;4.95;;
22332;SDS011;11334;36.986;-121.936;2022-07-23T09:03:25;16.95;;;4.75;;
22332;SDS011;11334;36.986;-121.936;2022-07-23T09:05:52;16.92;;;5.45;;
22332;SDS011;11334;36.986;-121.936;2022-07-23T09:08:21;12.10;;;4.30;;
22332;SDS011;11334;36.986;-121.936;2022-07-23T09:10:51;15.32;;;5.35;;
22332;SDS011;11334;36.986;-121.936;2022-07-23T09:16:11;25.77;;;5.80;;
22332;SDS011;11334;36.986;-121.936;2022-07-23T09:18:43;16.65;;;4.97;;
22332;SDS011;11334;36.986;-121.936;2022-07-23T09:21:29;15.70;;;5.18;;
22332;SDS011;11334;36.986;-121.936;2022-07-23T09:24:01;21.20;;;4.80;;
22332;SDS011;11334;36.986;-121.936;2022-07-23T09:29:19;18.58;;;5.32;;
22332;SDS011;11334;36.986;-121.936;2022-07-23T09:31:56;22.63;;;5.18;;
22332;SDS011;11334;36.986;-121.936;2022-07-23T09:34:31;18.35;;;4.57;;
22332;SDS011;11334;36.986;-121.936;2022-07-23T09:37:10;15.02;;;4.45;;
22332;SDS011;11334;36.986;-121.936;2022-07-23T09:39:42;12.57;;;4.28;;
22332;SDS011;11334;36.986;-121.936;2022-07-23T09:44:42;18.75;;;4.70;;
22332;SDS011;11334;36.986;-121.936;2022-07-23T09:47:10;20.45;;;4.85;;
22332;SDS011;11334;36.986;-121.936;2022-07-23T09:49:37;16.00;;;5.18;;
22332;SDS011;11334;36.986;-121.936;2022-07-23T09:52:03;15.50;;;4.47;;
22332;SDS011;11334;36.986;-121.936;2022-07-23T09:54:31;18.17;;;4.90;;
22332;SDS011;11334;36.986;-121.936;2022-07-23T09:57:12;19.35;;;5.43;;
22332;SDS011;11334;36.986;-121.936;2022-07-23T09:59:42;19.52;;;5.30;;
22332;SDS011;11334;36.986;-121.936;2022-07-23T10:02:11;21.23;;;5.18;;
22332;SDS011;11334;36.986;-121.936;2022-07-23T10:04:39;18.85;;;5.75;;
22332;SDS011;11334;36.986;-121.936;2022-07-23T10:07:07;18.80;;;4.95;;
22332;SDS011;11334;36.986;-121.936;2022-07-23T10:09:41;16.50;;;4.97;;
22332;SDS011;11334;36.986;-121.936;2022-07-23T10:12:12;17.60;;;5.22;;
22332;SDS011;11334;36.986;-121.936;2022-07-23T10:14:50;22.15;;;5.97;;
22332;SDS011;11334;36.986;-121.936;2022-07-23T10:17:17;18.73;;;5.15;;
22332;SDS011;11334;36.986;-121.936;2022-07-23T10:19:44;24.63;;;6.35;;
22332;SDS011;11334;36.986;-121.936;2022-07-23T10:22:14;24.20;;;5.85;;
22332;SDS011;11334;36.986;-121.936;2022-07-23T10:27:30;22.17;;;6.22;;
22332;SDS011;11334;36.986;-121.936;2022-07-23T10:38:31;23.55;;;6.85;;
22332;SDS011;11334;36.986;-121.936;2022-07-23T10:41:31;23.20;;;6.32;;
22332;SDS011;11334;36.986;-121.936;2022-07-23T10:44:32;20.25;;;6.40;;
22332;SDS011;11334;36.986;-121.936;2022-07-23T10:46:58;23.27;;;7.07;;
22332;SDS011;11334;36.986;-121.936;2022-07-23T10:49:35;18.33;;;6.63;;
22332;SDS011;11334;36.986;-121.936;2022-07-23T10:54:43;24.50;;;6.47;;
22332;SDS011;11334;36.986;-121.936;2022-07-23T10:57:11;18.08;;;6.80;;
22332;SDS011;11334;36.986;-121.936;2022-07-23T11:02:39;29.00;;;7.13;;
22332;SDS011;11334;36.986;-121.936;2022-07-23T11:05:58;27.35;;;6.60;;
22332;SDS011;11334;36.986;-121.936;2022-07-23T11:08:11;27.73;;;7.22;;
22332;SDS011;11334;36.986;-121.936;2022-07-23T11:13:26;24.70;;;6.72;;
22332;SDS011;11334;36.986;-121.936;2022-07-23T11:24:06;23.40;;;6.95;;
22332;SDS011;11334;36.986;-121.936;2022-07-23T11:31:57;22.23;;;6.80;;
22332;SDS011;11334;36.986;-121.936;2022-07-23T11:34:34;22.00;;;6.55;;
22332;SDS011;11334;36.986;-121.936;2022-07-23T11:37:47;20.50;;;6.53;;
22332;SDS011;11334;36.986;-121.936;2022-07-23T11:40:10;19.60;;;7.68;;
22332;SDS011;11334;36.986;-121.936;2022-07-23T11:42:39;24.90;;;7.15;;
22332;SDS011;11334;36.986;-121.936;2022-07-23T11:45:37;24.77;;;7.53;;
22332;SDS011;11334;36.986;-121.936;2022-07-23T11:48:08;27.20;;;6.85;;
22332;SDS011;11334;36.986;-121.936;2022-07-23T11:50:41;29.30;;;9.95;;
22332;SDS011;11334;36.986;-121.936;2022-07-23T11:53:07;21.58;;;9.93;;
22332;SDS011;11334;36.986;-121.936;2022-07-23T11:55:33;41.95;;;15.52;;
22332;SDS011;11334;36.986;-121.936;2022-07-23T11:58:00;50.55;;;18.80;;
22332;SDS011;11334;36.986;-121.936;2022-07-23T12:00:27;37.20;;;12.70;;
22332;SDS011;11334;36.986;-121.936;2022-07-23T12:02:56;21.90;;;7.10;;
22332;SDS011;11334;36.986;-121.936;2022-07-23T12:05:30;19.92;;;5.45;;
22332;SDS011;11334;36.986;-121.936;2022-07-23T12:07:59;16.20;;;5.88;;
22332;SDS011;11334;36.986;-121.936;2022-07-23T12:10:29;21.70;;;6.65;;
22332;SDS011;11334;36.986;-121.936;2022-07-23T12:13:08;23.63;;;7.05;;
22332;SDS011;11334;36.986;-121.936;2022-07-23T12:15:38;25.48;;;6.82;;
22332;SDS011;11334;36.986;-121.936;2022-07-23T12:18:07;10.85;;;4.07;;
22332;SDS011;11334;36.986;-121.936;2022-07-23T12:20:37;12.82;;;4.45;;
22332;SDS011;11334;36.986;-121.936;2022-07-23T12:23:07;10.93;;;4.00;;
22332;SDS011;11334;36.986;-121.936;2022-07-23T12:25:36;9.73;;;3.70;;
22332;SDS011;11334;36.986;-121.936;2022-07-23T12:28:08;9.85;;;3.95;;
22332;SDS011;11334;36.986;-121.936;2022-07-23T12:33:08;15.30;;;4.57;;
22332;SDS011;11334;36.986;-121.936;2022-07-23T12:35:40;9.80;;;4.15;;
22332;SDS011;11334;36.986;-121.936;2022-07-23T12:38:12;12.85;;;4.82;;
22332;SDS011;11334;36.986;-121.936;2022-07-23T12:40:44;12.32;;;4.85;;
22332;SDS011;11334;36.986;-121.936;2022-07-23T12:43:35;12.85;;;5.18;;
22332;SDS011;11334;36.986;-121.936;2022-07-23T12:46:04;8.38;;;4.20;;
22332;SDS011;11334;36.986;-121.936;2022-07-23T12:48:39;11.60;;;4.10;;
22332;SDS011;11334;36.986;-121.936;2022-07-23T12:51:06;10.02;;;3.92;;
22332;SDS011;11334;36.986;-121.936;2022-07-23T12:54:03;11.38;;;4.53;;
22332;SDS011;11334;36.986;-121.936;2022-07-23T12:56:35;10.45;;;3.60;;
22332;SDS011;11334;36.986;-121.936;2022-07-23T13:01:34;9.38;;;4.70;;
22332;SDS011;11334;36.986;-121.936;2022-07-23T13:04:05;13.18;;;4.35;;
22332;SDS011;11334;36.986;-121.936;2022-07-23T13:06:42;12.57;;;4.57;;
22332;SDS011;11334;36.986;-121.936;2022-07-23T13:09:12;13.90;;;4.57;;
22332;SDS011;11334;36.986;-121.936;2022-07-23T13:11:40;10.30;;;3.67;;
22332;SDS011;11334;36.986;-121.936;2022-07-23T13:14:07;16.70;;;5.00;;
22332;SDS011;11334;36.986;-121.936;2022-07-23T13:16:33;10.60;;;4.43;;
22332;SDS011;11334;36.986;-121.936;2022-07-23T13:18:59;9.55;;;4.60;;
22332;SDS011;11334;36.986;-121.936;2022-07-23T13:21:27;11.80;;;4.68;;
22332;SDS011;11334;36.986;-121.936;2022-07-23T13:23:54;12.45;;;4.75;;
22332;SDS011;11334;36.986;-121.936;2022-07-23T13:26:21;13.93;;;4.93;;
22332;SDS011;11334;36.986;-121.936;2022-07-23T13:28:48;15.88;;;5.28;;
22332;SDS011;11334;36.986;-121.936;2022-07-23T13:31:16;13.68;;;5.68;;
22332;SDS011;11334;36.986;-121.936;2022-07-23T13:33:42;14.73;;;4.63;;
22332;SDS011;11334;36.986;-121.936;2022-07-23T13:36:09;12.65;;;5.55;;
22332;SDS011;11334;36.986;-121.936;2022-07-23T13:38:36;16.67;;;5.47;;
22332;SDS011;11334;36.986;-121.936;2022-07-23T13:41:02;15.88;;;5.82;;
22332;SDS011;11334;36.986;-121.936;2022-07-23T13:43:30;15.50;;;5.25;;
22332;SDS011;11334;36.986;-121.936;2022-07-23T13:45:57;10.63;;;4.90;;
22332;SDS011;11334;36.986;-121.936;2022-07-23T13:48:23;11.48;;;5.30;;
22332;SDS011;11334;36.986;-121.936;2022-07-23T13:50:51;11.50;;;4.88;;
22332;SDS011;11334;36.986;-121.936;2022-07-23T13:53:18;9.38;;;3.97;;
22332;SDS011;11334;36.986;-121.936;2022-07-23T13:55:49;8.63;;;3.85;;
22332;SDS011;11334;36.986;-121.936;2022-07-23T13:58:16;8.13;;;3.72;;
22332;SDS011;11334;36.986;-121.936;2022-07-23T14:00:44;10.20;;;3.42;;
22332;SDS011;11334;36.986;-121.936;2022-07-23T14:03:13;9.00;;;3.63;;
22332;SDS011;11334;36.986;-121.936;2022-07-23T14:05:39;8.20;;;3.72;;
22332;SDS011;11334;36.986;-121.936;2022-07-23T14:08:07;8.00;;;3.35;;
22332;SDS011;11334;36.986;-121.936;2022-07-23T14:10:34;8.32;;;3.60;;
22332;SDS011;11334;36.986;-121.936;2022-07-23T14:13:00;7.68;;;3.50;;
22332;SDS011;11334;36.986;-121.936;2022-07-23T14:15:28;6.68;;;3.08;;
22332;SDS011;11334;36.986;-121.936;2022-07-23T14:17:56;8.25;;;3.03;;
22332;SDS011;11334;36.986;-121.936;2022-07-23T14:20:22;10.20;;;3.85;;
22332;SDS011;11334;36.986;-121.936;2022-07-23T14:22:49;6.38;;;4.30;;
22332;SDS011;11334;36.986;-121.936;2022-07-23T14:25:15;9.00;;;4.30;;
22332;SDS011;11334;36.986;-121.936;2022-07-23T14:27:42;6.18;;;3.85;;
22332;SDS011;11334;36.986;-121.936;2022-07-23T14:30:10;5.75;;;3.22;;
22332;SDS011;11334;36.986;-121.936;2022-07-23T14:32:37;7.45;;;3.60;;
22332;SDS011;11334;36.986;-121.936;2022-07-23T14:35:04;9.07;;;3.50;;
22332;SDS011;11334;36.986;-121.936;2022-07-23T14:37:32;9.75;;;3.88;;
22332;SDS011;11334;36.986;-121.936;2022-07-23T14:39:58;10.45;;;3.78;;
22332;SDS011;11334;36.986;-121.936;2022-07-23T14:42:25;7.03;;;4.03;;
22332;SDS011;11334;36.986;-121.936;2022-07-23T14:44:51;6.18;;;3.30;;
22332;SDS011;11334;36.986;-121.936;2022-07-23T14:47:17;6.68;;;3.58;;
22332;SDS011;11334;36.986;-121.936;2022-07-23T14:49:43;8.02;;;3.88;;